Hlavní strana
METAR-TAF:

METAR-TAF

Letiště :

San Antonio del Táchira, Venezuela

zeměpisná šířka: 07-51N, zeměpisná délka: 072-27W, výška: 377 m

METAR: chybějící

Čas: 06:54 (10:54 UTC)

Předpověď počasí

Zpráva byla vytvořena před 6 hodinami a 54 minutami, v 04:00 UTC
Předpověď platná od 24 v 06 UTC do 25 v 06 UTC
Severní vítr kt
Viditelnost 10 km a více
Polojasno ve výšce 2000 ft
Změna
od 24 v 06 UTC do 24 v 10 UTC
vítr z různých směrů 3 kt
Skoro jasno ve výšce 2000 ft

TAF: SVSA 240400Z 2406/2506 00000KT 9999 SCT020 TX31/19Z TN22/08Z BECMG 2406/2410 VRB03KT FEW020

Stav a předpovědi počasí z více než 4 000 letišť (zprávy METAR a TAF).

Červené a žluté tečky na mapě představují dostupné meteorologické stanice.

Když kurzor umístíte na tečku, zobrazí se název stanice.

Pak kliknutím zobrazíte stav a předpověď počasí.

Chcete-li změnit mapu, kliknutím na zelené tlačítko se znaménkem +mapu přiblížíte, kliknutím na zelené tlačítko se znaménkem – mapu oddálíte a kliknutím na zelené šipky přejdete na sousední mapy.


METAR-TAF: